Huvudsida
METAR-TAF:

METAR-TAF

Flygplatser :

Kirkenes flygplats. Høybuktmoen

Kirkenes, Norge

latitud: 69-44N, longitud: 029-54E, höjd: 9 m

Aktuellt väderrapport

Denna rapport gjordes för 28 minuter sedan, klockan 09:20 UTC
Vind 17 kt från väst/nordväst
Temperatur 7°C
Fuktighet 61%
Tryck 1026 hPa
Sikt 10 km eller mer
Spridda moln på en höjd av 2600 ft
Brutna moln på en höjd av 3400 ft
skurar i närheten

METAR: ENKR 270920Z 30017KT 9999 VCSH SCT026 BKN034 07/M00 Q1026 RMK WIND 731FT 29023KT

Tid: 11:48 (09:48 UTC)


TAF: saknas

Aktuella väderrapporter och prognoser från 4000 flygplatser (METAR- och TAF-rapporter).

De tillgängliga stationerna syns som gula och röda prickar på kartan.

För musen över prickarna för att se namnen på stationerna.

Klicka sedan för att få väderrapporter och prognoser.

För att ändra kartan: Klicka på de gröna knapparna med ett svart kors på för att zooma in; den gröna knappen med ett streck på för att zooma ut; eller på de gröna pilarna för angränsande kartor.


METAR-TAF: